»·PEaware :: N1SC KLAX-KSBA

N1SC :: KLAX-KSBA

FLIGHT INFORMATION

Flight Status: Arrived
Operator: Privately registered:
United States
More flights under this callsign
Pilot: Chris C. (10181)
Aircraft: Unknown
(P31)
More flights by this aircraft type
Origin: KLAX Los Angeles Intl
United States
Destination: KSBA Santa Barbara Mun
United States
More flights between these airports :: More routes between these airports
Route: +VTU8 VTU VTU282 KWANG
File this flight plan on PilotEdge
Remarks:
Altitude:
(Current/Filed)
6,000ft
Speed:
(Current/Filed)
170kts
Departed: 04-Sep-18 08:36 AM
Arrived: 04-Sep-18 09:20 AM
Distance/Time
Traveled:
77nm/0:44
Distance/Time
To Go:
Arrived

Flight Plot

Page will automatically refresh every two minutes.

Flight plan parsing failed; only flown route is shown


Map Options




Map Legend


Flown Route
Filed Route
Departure Airport
Arrival Airport
Navaid (VOR, NDB)
Fix

Horizontal Profiles

Position Reports

Time Latitude Longitude Heading Altitude Ground
Speed
04-Sep-18 08:28 33.933884 -118.395139 92 107ft 0kts
04-Sep-18 08:29 33.933884 -118.395139 92 107ft 0kts
04-Sep-18 08:30 33.933884 -118.395139 92 107ft 0kts
04-Sep-18 08:31 33.933884 -118.395139 92 107ft 0kts
04-Sep-18 08:32 33.933884 -118.395139 92 107ft 0kts
04-Sep-18 08:33 33.933884 -118.395139 92 107ft 0kts
04-Sep-18 08:34 33.935069 -118.393609 76 107ft 15kts
04-Sep-18 08:35 33.935916 -118.385170 82 106ft 29kts
04-Sep-18 08:36 33.936452 -118.382805 4 107ft 0kts
04-Sep-18 08:37 33.935669 -118.401052 265 406ft 100kts
04-Sep-18 08:38 33.932295 -118.434749 262 1670ft 116kts
04-Sep-18 08:39 33.926625 -118.475803 262 2848ft 131kts
04-Sep-18 08:40 33.920194 -118.519461 262 4042ft 134kts
04-Sep-18 08:41 33.913506 -118.563589 262 5186ft 135kts
04-Sep-18 08:42 33.906580 -118.609202 262 6009ft 156kts
04-Sep-18 08:43 33.898184 -118.665193 261 5995ft 183kts
04-Sep-18 08:44 33.920782 -118.716594 306 5994ft 181kts
04-Sep-18 08:45 33.949948 -118.766453 303 5995ft 184kts
04-Sep-18 08:46 33.979620 -118.817126 302 5995ft 186kts
04-Sep-18 08:47 34.009468 -118.868230 302 5995ft 186kts
04-Sep-18 08:48 34.039075 -118.919006 306 5999ft 186kts
04-Sep-18 08:49 34.068371 -118.969291 306 5993ft 182kts
04-Sep-18 08:50 34.096729 -119.018010 306 5993ft 181kts
04-Sep-18 08:51 34.123090 -119.068933 297 5995ft 181kts
04-Sep-18 08:52 34.145839 -119.122799 298 5995ft 182kts
04-Sep-18 08:53 34.168647 -119.177227 298 5995ft 182kts
04-Sep-18 08:54 34.191489 -119.231824 298 5995ft 182kts
04-Sep-18 08:56 34.214384 -119.286620 298 5995ft 183kts
04-Sep-18 08:57 34.237310 -119.341559 298 5995ft 183kts
04-Sep-18 08:58 34.260246 -119.396619 298 5994ft 183kts
04-Sep-18 08:59 34.283156 -119.451695 298 5994ft 183kts
04-Sep-18 09:00 34.305988 -119.506686 298 5995ft 183kts
04-Sep-18 09:01 34.316277 -119.565847 273 5815ft 184kts
04-Sep-18 09:02 34.317660 -119.625952 273 5140ft 186kts
04-Sep-18 09:03 34.319294 -119.688263 272 4460ft 186kts
04-Sep-18 09:04 34.321132 -119.749706 273 4058ft 183kts
04-Sep-18 09:05 34.323047 -119.812612 273 3997ft 187kts
04-Sep-18 09:06 34.325005 -119.875486 273 3997ft 187kts
04-Sep-18 09:07 34.326975 -119.938338 273 3997ft 187kts
04-Sep-18 09:08 34.328964 -120.001330 273 3997ft 187kts
04-Sep-18 09:09 34.330981 -120.064408 273 3997ft 188kts
04-Sep-18 09:10 34.333096 -120.127739 273 3997ft 188kts
04-Sep-18 09:11 34.335369 -120.191240 273 3997ft 189kts
04-Sep-18 09:12 34.349161 -120.247792 348 3999ft 186kts
04-Sep-18 09:13 34.382574 -120.205881 60 3998ft 188kts
04-Sep-18 09:14 34.406765 -120.153214 60 3994ft 166kts
04-Sep-18 09:15 34.424479 -120.105177 91 4011ft 157kts
04-Sep-18 09:16 34.425080 -120.055146 86 3438ft 138kts
04-Sep-18 09:17 34.425128 -120.010434 92 2770ft 129kts
04-Sep-18 09:18 34.425186 -119.966727 84 1910ft 130kts
04-Sep-18 09:19 34.426105 -119.927226 92 1276ft 92kts
04-Sep-18 09:20 34.427132 -119.894342 89 564ft 97kts
04-Sep-18 09:21 34.427376 -119.861574 88 110ft 93kts
04-Sep-18 09:22 34.427878 -119.837062 90 16ft 36kts
04-Sep-18 09:23 34.428934 -119.835227 345 16ft 0kts
04-Sep-18 09:24 34.428934 -119.835227 345 16ft 0kts
04-Sep-18 09:25 34.432413 -119.835419 353 16ft 22kts

Navigation Log

Ident Type
Flight plan parsing failed, navigation log unavailable